Time;durP1;ratioP1;P1;durP2;ratioP2;P2;SDS_P1;SDS_P2;PMS_P1;PMS_P2;Temp;Humidity;BMP_temperature;BMP_pressure;BME280_temperature;BME280_humidity;BME280_pressure;Samples;Min_cycle;Max_cycle;Signal;HPM_P1;HPM_P2
2021/09/26 00:00:45;;;;;;;8.70;2.40;;;;;;;14.41;69.86;99239.55;27251;1217;3052520;-68
2021/09/26 00:03:14;;;;;;;8.10;2.80;;;;;;;14.07;70.89;99240.44;27237;1217;3026059;-66
2021/09/26 00:05:43;;;;;;;10.10;3.00;;;;;;;13.80;71.88;99238.20;27255;1217;3051577;-68
2021/09/26 00:08:12;;;;;;;8.80;2.60;;;;;;;13.61;72.68;99241.91;27247;1217;3025911;-69
2021/09/26 00:10:40;;;;;;;7.30;2.00;;;;;;;13.54;73.20;99245.05;27293;1217;3048829;-70
2021/09/26 00:13:09;;;;;;;8.60;2.40;;;;;;;14.02;72.34;99236.80;27251;1217;3026030;-72
2021/09/26 00:15:38;;;;;;;8.90;2.60;;;;;;;14.22;71.15;99245.64;27213;1218;3058088;-67
2021/09/26 00:18:07;;;;;;;5.00;2.30;;;;;;;14.10;71.37;99238.79;27249;1217;3025899;-69
2021/09/26 00:20:36;;;;;;;11.40;3.30;;;;;;;13.90;71.97;99249.52;27244;1217;3055720;-71
2021/09/26 00:23:05;;;;;;;8.90;2.90;;;;;;;13.66;73.62;99242.27;27298;1218;3027938;-68
2021/09/26 00:25:34;;;;;;;12.30;3.00;;;;;;;14.32;71.60;99236.70;27269;1218;3051634;-67
2021/09/26 00:28:03;;;;;;;10.90;3.20;;;;;;;14.48;70.67;99232.50;27244;1218;3026948;-72
2021/09/26 00:30:33;;;;;;;5.60;2.70;;;;;;;14.17;71.45;99235.98;27223;1217;3029117;-69
2021/09/26 00:33:02;;;;;;;12.10;3.20;;;;;;;14.10;71.55;99243.58;27215;1218;3026064;-70
2021/09/26 00:35:31;;;;;;;7.30;3.00;;;;;;;13.81;72.76;99243.39;27237;1218;3054479;-71
2021/09/26 00:38:00;;;;;;;6.50;2.60;;;;;;;13.89;73.42;99237.50;27213;1209;3025873;-65
2021/09/26 00:42:48;;;;;;;8.00;2.70;;;;;;;14.29;71.65;99227.80;34335;1217;3028534;-67
2021/09/26 00:45:17;;;;;;;15.50;4.30;;;;;;;14.35;71.19;99221.38;27217;1219;3026604;-71
2021/09/26 00:47:47;;;;;;;6.40;2.60;;;;;;;14.17;71.96;99224.34;27273;1219;3027199;-70
2021/09/26 00:50:16;;;;;;;6.30;2.70;;;;;;;14.05;72.77;99214.23;27266;1219;3051364;-68
2021/09/26 00:52:46;;;;;;;9.40;3.00;;;;;;;14.11;72.26;99221.11;27266;1217;3026579;-64
2021/09/26 00:55:15;;;;;;;10.40;2.90;;;;;;;14.48;71.36;99213.63;27228;1218;3027072;-68
2021/09/26 00:57:44;;;;;;;11.20;3.00;;;;;;;14.14;72.13;99205.39;27240;1218;3027273;-69
2021/09/26 01:00:16;;;;;;;9.20;3.00;;;;;;;14.03;72.30;99212.46;27253;1218;3055778;-65
2021/09/26 01:02:45;;;;;;;5.90;2.40;;;;;;;13.88;72.76;99216.44;27232;1218;3026126;-68
2021/09/26 01:05:14;;;;;;;10.10;2.80;;;;;;;14.08;73.22;99226.29;27226;1217;3025888;-66
2021/09/26 01:07:57;;;;;;;9.70;3.30;;;;;;;14.77;70.68;99211.09;27235;1218;3051063;-65
2021/09/26 01:10:54;;;;;;;7.60;3.60;;;;;;;14.41;71.18;99213.66;27231;1219;3052425;-67
2021/09/26 01:13:31;;;;;;;7.30;2.90;;;;;;;14.16;71.90;99208.07;27220;1219;3055756;-65
2021/09/26 01:16:06;;;;;;;11.00;3.20;;;;;;;13.88;73.08;99210.63;27232;1218;3049961;-66
2021/09/26 01:18:57;;;;;;;9.50;2.10;;;;;;;13.89;73.33;99215.61;27240;1216;3052589;-66
2021/09/26 01:21:43;;;;;;;7.00;2.30;;;;;;;14.54;71.55;99206.83;27256;1216;3049970;-66
2021/09/26 01:24:41;;;;;;;10.10;2.70;;;;;;;14.59;71.12;99205.48;27226;1216;3071412;-70
2021/09/26 01:27:22;;;;;;;7.30;2.60;;;;;;;14.33;71.68;99211.83;27240;1216;3048560;-69
2021/09/26 01:30:13;;;;;;;10.70;3.40;;;;;;;14.14;72.09;99212.11;27223;1216;3054546;-73
2021/09/26 01:32:45;;;;;;;6.20;2.30;;;;;;;13.98;73.33;99220.55;27182;1216;3051915;-68
2021/09/26 01:35:14;;;;;;;8.10;3.00;;;;;;;14.68;71.24;99210.61;27289;1216;3026569;-70
2021/09/26 01:37:45;;;;;;;6.30;2.80;;;;;;;14.71;70.86;99211.02;27241;1216;3026445;-72
2021/09/26 01:40:41;;;;;;;11.00;3.40;;;;;;;14.65;70.67;99212.92;27256;1216;3051441;-65
2021/09/26 01:43:13;;;;;;;8.90;3.20;;;;;;;14.25;71.91;99223.58;27261;1216;3058130;-72
2021/09/26 01:45:48;;;;;;;8.20;2.60;;;;;;;14.09;73.13;99224.11;27233;1216;3026538;-69
2021/09/26 01:48:23;;;;;;;9.50;2.80;;;;;;;14.65;71.85;99222.34;27252;1209;3052846;-70
2021/09/26 01:50:52;;;;;;;8.70;3.20;;;;;;;14.98;70.30;99220.00;27261;1218;3049982;-71
2021/09/26 01:53:21;;;;;;;7.00;2.90;;;;;;;14.76;70.70;99219.62;27220;1217;3028033;-70
2021/09/26 01:55:50;;;;;;;11.20;3.20;;;;;;;14.40;71.86;99215.52;27231;1218;3054190;-68
2021/09/26 01:58:19;;;;;;;7.80;3.00;;;;;;;14.15;72.87;99220.85;27251;1218;3027086;-71
2021/09/26 02:00:48;;;;;;;6.70;2.50;;;;;;;13.95;74.29;99214.66;27226;1217;3027708;-69
2021/09/26 02:03:18;;;;;;;7.60;2.90;;;;;;;14.67;72.26;99214.91;27257;1217;3026776;-66
2021/09/26 02:05:47;;;;;;;7.90;3.40;;;;;;;14.93;71.02;99227.79;27266;1216;3052010;-71
2021/09/26 02:08:17;;;;;;;9.70;3.60;;;;;;;14.87;70.88;99226.94;27239;1217;3026074;-69
2021/09/26 02:10:47;;;;;;;6.70;3.20;;;;;;;14.68;71.44;99221.19;27234;1216;3051502;-72
2021/09/26 02:13:16;;;;;;;12.40;3.50;;;;;;;14.32;72.62;99224.10;27217;1217;3027584;-69
2021/09/26 02:15:44;;;;;;;8.60;3.20;;;;;;;14.32;72.94;99226.66;27207;1202;3026525;-69
2021/09/26 02:18:14;;;;;;;9.10;2.80;;;;;;;14.99;71.44;99219.15;27214;1219;3054899;-69
2021/09/26 02:20:43;;;;;;;7.70;3.50;;;;;;;15.08;70.63;99220.39;27226;1217;3026574;-70
2021/09/26 02:23:12;;;;;;;13.50;3.70;;;;;;;14.96;70.77;99217.48;27226;1217;3048649;-72
2021/09/26 02:25:42;;;;;;;7.70;4.10;;;;;;;14.57;71.90;99225.08;27285;1217;3028121;-71
2021/09/26 02:28:11;;;;;;;11.20;5.30;;;;;;;14.17;73.59;99228.57;27220;1217;3055577;-67
2021/09/26 02:30:40;;;;;;;7.30;3.30;;;;;;;14.20;74.10;99223.58;27215;1217;3028289;-69
2021/09/26 02:33:09;;;;;;;8.50;3.50;;;;;;;14.83;72.06;99221.89;27217;1218;3051189;-68
2021/09/26 02:35:38;;;;;;;10.90;4.00;;;;;;;15.07;71.07;99222.93;27264;1218;3026533;-68
2021/09/26 02:38:07;;;;;;;8.50;3.10;;;;;;;14.92;71.19;99223.31;27238;1218;3051349;-68
2021/09/26 02:40:36;;;;;;;9.50;3.70;;;;;;;14.72;71.62;99226.36;27244;1216;3027653;-69
2021/09/26 02:43:14;;;;;;;7.30;3.00;;;;;;;14.39;72.94;99230.72;27264;1216;3047824;-68
2021/09/26 02:45:49;;;;;;;6.80;3.00;;;;;;;14.39;73.71;99233.93;27277;1217;3054447;-72
2021/09/26 02:48:21;;;;;;;9.70;3.70;;;;;;;14.68;72.68;99230.34;27220;1217;3051869;-67
2021/09/26 02:50:51;;;;;;;11.70;4.00;;;;;;;14.65;72.48;99231.96;27226;1217;3026596;-67
2021/09/26 02:53:20;;;;;;;9.70;3.50;;;;;;;14.61;72.52;99235.17;27225;1217;3026476;-71
2021/09/26 02:55:50;;;;;;;7.50;3.30;;;;;;;14.38;73.07;99237.88;27271;1218;3028359;-68
2021/09/26 02:58:20;;;;;;;5.50;3.00;;;;;;;14.50;73.70;99237.29;27188;1218;3055346;-70
2021/09/26 03:00:49;;;;;;;11.00;3.60;;;;;;;14.74;72.46;99233.58;27288;1217;3026225;-67
2021/09/26 03:03:24;;;;;;;11.30;3.90;;;;;;;14.79;72.36;99235.27;27245;1216;3026103;-69
2021/09/26 03:05:53;;;;;;;7.80;3.60;;;;;;;14.53;73.07;99237.36;27230;1216;3058997;-65
2021/09/26 03:08:22;;;;;;;10.00;3.70;;;;;;;14.23;74.31;99239.58;27206;1216;3027387;-66
2021/09/26 03:10:54;;;;;;;7.30;3.30;;;;;;;14.26;74.38;99240.02;27259;1216;3052008;-70
2021/09/26 03:13:23;;;;;;;9.80;3.40;;;;;;;14.59;73.77;99238.95;27260;1216;3027691;-71
2021/09/26 03:15:52;;;;;;;12.50;4.00;;;;;;;14.86;72.68;99232.27;27196;1216;3026178;-67
2021/09/26 03:18:21;;;;;;;11.70;4.20;;;;;;;14.78;72.71;99237.10;27195;1216;3050616;-66
2021/09/26 03:20:51;;;;;;;8.60;3.90;;;;;;;14.45;73.93;99250.83;27265;1216;3028310;-69
2021/09/26 03:23:19;;;;;;;7.90;3.40;;;;;;;14.38;74.62;99245.03;27249;1216;3054843;-66
2021/09/26 03:25:49;;;;;;;10.50;3.70;;;;;;;14.64;74.09;99237.02;27254;1216;3026829;-72
2021/09/26 03:28:18;;;;;;;7.50;3.50;;;;;;;15.05;72.85;99240.55;27239;1216;3050211;-66
2021/09/26 03:30:47;;;;;;;9.60;3.70;;;;;;;14.89;73.03;99240.95;27270;1216;3028741;-65
2021/09/26 03:33:18;;;;;;;12.30;4.50;;;;;;;14.68;73.75;99241.46;27277;1216;3027102;-73
2021/09/26 03:35:47;;;;;;;7.60;4.00;;;;;;;14.38;75.34;99251.92;27275;1216;3049500;-65
2021/09/26 03:38:16;;;;;;;6.50;3.10;;;;;;;14.34;75.36;99249.45;27246;1216;3026409;-66
2021/09/26 03:40:44;;;;;;;6.00;3.20;;;;;;;14.88;74.12;99248.70;27261;1216;3070237;-67
2021/09/26 03:43:13;;;;;;;6.50;3.60;;;;;;;15.19;72.98;99242.73;27269;1209;3026189;-66
2021/09/26 03:45:49;;;;;;;8.60;4.20;;;;;;;15.16;72.97;99246.52;27464;1216;3049416;-67
2021/09/26 03:48:22;;;;;;;6.90;4.30;;;;;;;15.16;72.65;99253.79;27652;1216;3067434;-67
2021/09/26 03:50:51;;;;;;;8.40;3.90;;;;;;;14.88;73.48;99255.86;27607;1216;3026094;-63
2021/09/26 03:53:20;;;;;;;5.90;3.20;;;;;;;14.69;74.56;99263.93;27338;1216;3028309;-69
2021/09/26 03:55:49;;;;;;;9.20;3.80;;;;;;;15.22;73.15;99258.92;27208;1216;3026600;-70
2021/09/26 03:58:18;;;;;;;6.00;3.80;;;;;;;15.29;72.67;99254.27;27219;1216;3047668;-69
2021/09/26 04:00:47;;;;;;;8.00;4.30;;;;;;;15.20;72.65;99262.12;27275;1216;3028537;-65
2021/09/26 04:03:16;;;;;;;7.30;4.10;;;;;;;14.83;73.96;99263.86;27230;1216;3070109;-68
2021/09/26 04:05:46;;;;;;;11.00;3.10;;;;;;;14.59;75.05;99268.45;27227;1216;3026694;-67
2021/09/26 04:08:15;;;;;;;8.80;3.40;;;;;;;15.02;74.19;99261.08;27252;1208;3026105;-72
2021/09/26 04:10:44;;;;;;;11.40;4.20;;;;;;;15.34;72.94;99257.16;27228;1216;3068665;-68
2021/09/26 04:13:13;;;;;;;8.50;4.10;;;;;;;15.14;73.44;99258.30;27258;1210;3025826;-69
2021/09/26 04:15:41;;;;;;;9.10;4.50;;;;;;;15.09;73.49;99262.66;27295;1216;3050936;-71
2021/09/26 04:18:10;;;;;;;10.10;4.20;;;;;;;14.87;73.86;99265.81;27258;1209;3026340;-68
2021/09/26 04:20:39;;;;;;;8.40;3.40;;;;;;;14.72;74.86;99263.38;27245;1216;3052628;-71
2021/09/26 04:23:08;;;;;;;7.70;3.50;;;;;;;15.30;73.94;99259.11;27249;1208;3025557;-66
2021/09/26 04:25:37;;;;;;;6.80;4.30;;;;;;;15.69;72.12;99255.89;27255;1216;3051802;-64
2021/09/26 04:28:06;;;;;;;7.70;4.00;;;;;;;15.71;71.84;99258.70;27215;1216;3028144;-67
2021/09/26 04:30:36;;;;;;;7.90;4.70;;;;;;;15.40;72.41;99260.94;27210;1216;3055922;-70
2021/09/26 04:33:05;;;;;;;10.70;5.10;;;;;;;15.12;73.05;99257.06;27227;1216;3028106;-70
2021/09/26 04:35:34;;;;;;;8.60;4.10;;;;;;;14.93;74.45;99255.48;27245;1216;3027739;-67
2021/09/26 04:38:03;;;;;;;12.30;4.90;;;;;;;15.28;73.45;99259.77;27269;1216;3055396;-71
2021/09/26 04:40:32;;;;;;;8.40;4.70;;;;;;;15.36;73.41;99254.73;27246;1216;3026026;-69
2021/09/26 04:43:01;;;;;;;8.30;4.80;;;;;;;15.21;73.55;99253.67;27274;1216;3051496;-70
2021/09/26 04:45:30;;;;;;;13.30;4.80;;;;;;;15.10;73.72;99256.92;27223;1216;3028769;-70
2021/09/26 04:47:59;;;;;;;8.00;3.80;;;;;;;14.90;74.81;99253.99;27245;1216;3050954;-63
2021/09/26 04:50:28;;;;;;;10.20;4.40;;;;;;;15.25;74.49;99254.63;27243;1216;3027601;-69
2021/09/26 04:52:56;;;;;;;9.60;4.70;;;;;;;15.64;72.71;99256.84;27228;1216;3048002;-70
2021/09/26 04:55:26;;;;;;;7.30;4.40;;;;;;;15.55;72.64;99254.25;27244;1216;3026963;-69
2021/09/26 04:57:56;;;;;;;9.80;5.30;;;;;;;15.48;72.67;99260.30;27236;1216;3067726;-66
2021/09/26 05:00:25;;;;;;;12.00;4.80;;;;;;;15.24;73.39;99261.05;27263;1216;3026701;-69
2021/09/26 05:02:55;;;;;;;7.00;4.10;;;;;;;15.12;74.38;99263.10;27253;1208;3027175;-73
2021/09/26 05:05:24;;;;;;;9.00;4.40;;;;;;;15.74;72.95;99263.38;27176;1216;3068486;-66
2021/09/26 05:07:53;;;;;;;8.60;5.00;;;;;;;15.88;71.91;99273.19;27247;1216;3028389;-70
2021/09/26 05:10:22;;;;;;;12.50;5.70;;;;;;;15.76;71.96;99279.30;27253;1216;3053284;-67
2021/09/26 05:12:51;;;;;;;12.20;5.30;;;;;;;15.38;73.58;99278.40;27222;1216;3026155;-66
2021/09/26 05:15:20;;;;;;;13.50;5.90;;;;;;;15.25;74.12;99279.31;27215;1209;3052540;-70
2021/09/26 05:17:49;;;;;;;8.60;4.20;;;;;;;15.15;74.74;99279.25;27229;1208;3025942;-72
2021/09/26 05:20:18;;;;;;;12.20;5.00;;;;;;;15.81;73.19;99276.27;27230;1216;3049595;-67
2021/09/26 05:22:48;;;;;;;16.10;6.40;;;;;;;16.06;71.70;99271.99;27208;1216;3026047;-67
2021/09/26 05:25:17;;;;;;;11.20;6.70;;;;;;;15.94;72.10;99276.00;27253;1216;3056295;-68
2021/09/26 05:27:46;;;;;;;12.00;7.70;;;;;;;15.75;72.63;99275.44;27219;1216;3026354;-68
2021/09/26 05:30:15;;;;;;;12.70;6.90;;;;;;;15.61;73.18;99273.68;27236;1216;3051694;-68
2021/09/26 05:32:44;;;;;;;12.40;6.10;;;;;;;15.61;73.46;99277.02;27250;1216;3026064;-67
2021/09/26 05:35:13;;;;;;;13.60;6.00;;;;;;;15.99;72.42;99271.03;27245;1216;3050861;-71
2021/09/26 05:37:42;;;;;;;15.30;6.70;;;;;;;16.11;71.96;99276.14;27250;1216;3026284;-70
2021/09/26 05:40:12;;;;;;;12.30;7.40;;;;;;;15.95;72.23;99276.48;27267;1216;3052636;-67
2021/09/26 05:42:42;;;;;;;19.50;8.00;;;;;;;15.85;72.63;99275.58;27243;1216;3026503;-65
2021/09/26 05:45:11;;;;;;;15.70;7.90;;;;;;;15.66;73.24;99280.98;27282;1216;3026102;-68
2021/09/26 05:47:40;;;;;;;11.60;5.90;;;;;;;15.65;73.51;99282.65;27235;1216;3028110;-68
2021/09/26 05:50:09;;;;;;;14.60;6.80;;;;;;;16.05;72.26;99276.66;27202;1216;3053529;-71
2021/09/26 05:52:38;;;;;;;17.40;7.70;;;;;;;16.24;71.55;99272.03;27221;1216;3028117;-67
2021/09/26 05:55:08;;;;;;;20.30;8.90;;;;;;;16.18;71.59;99268.69;27222;1216;3026242;-65
2021/09/26 05:57:38;;;;;;;20.90;9.90;;;;;;;16.06;71.85;99266.16;27229;1216;3053369;-69
2021/09/26 06:00:07;;;;;;;27.80;10.40;;;;;;;16.02;71.90;99266.69;27297;1216;3026544;-75
2021/09/26 06:02:43;;;;;;;11.70;5.70;;;;;;;16.00;72.25;99264.40;27243;1216;3056310;-66
2021/09/26 06:05:13;;;;;;;21.80;6.40;;;;;;;16.66;70.64;99262.20;27194;1216;3027841;-69
2021/09/26 06:07:41;;;;;;;15.00;6.80;;;;;;;17.09;68.89;99256.55;27268;1216;3026116;-64
2021/09/26 06:10:11;;;;;;;17.30;7.70;;;;;;;17.04;67.94;99259.29;27240;1216;3054984;-71
2021/09/26 06:12:39;;;;;;;12.00;8.30;;;;;;;16.89;68.50;99263.63;27228;1216;3026121;-71
2021/09/26 06:15:09;;;;;;;20.00;8.40;;;;;;;16.75;68.89;99263.80;27269;1216;3051503;-70
2021/09/26 06:17:38;;;;;;;12.60;7.50;;;;;;;16.64;69.68;99267.23;27231;1216;3026169;-69
2021/09/26 06:20:07;;;;;;;11.80;5.90;;;;;;;16.39;69.82;99274.22;27323;1216;3025832;-67
2021/09/26 06:22:36;;;;;;;12.20;5.30;;;;;;;16.45;70.05;99277.98;27248;1216;3052075;-71
2021/09/26 06:25:06;;;;;;;9.60;6.00;;;;;;;17.18;67.18;99271.14;27322;1208;3026028;-71
2021/09/26 06:27:34;;;;;;;12.80;6.60;;;;;;;17.28;66.47;99279.24;27300;1216;3051466;-69
2021/09/26 06:30:05;;;;;;;15.40;7.20;;;;;;;17.07;66.89;99283.63;27257;1216;3025818;-68
2021/09/26 06:32:34;;;;;;;11.00;7.00;;;;;;;16.86;67.83;99290.64;27230;1216;3047302;-69
2021/09/26 06:35:05;;;;;;;16.10;6.60;;;;;;;16.77;67.80;99292.50;27226;1216;3026470;-69
2021/09/26 06:37:34;;;;;;;12.30;6.30;;;;;;;16.58;68.59;99292.16;27210;1216;3026582;-71
2021/09/26 06:40:05;;;;;;;9.80;4.50;;;;;;;16.53;68.76;99291.59;27253;1216;3027147;-69
2021/09/26 06:42:33;;;;;;;9.90;4.60;;;;;;;17.18;67.52;99286.50;27283;1216;3051011;-68
2021/09/26 06:45:04;;;;;;;6.10;3.60;;;;;;;17.41;65.18;99293.63;27303;1216;3026240;-62
2021/09/26 06:47:33;;;;;;;7.70;4.40;;;;;;;17.27;64.84;99287.27;27272;1216;3048606;-69
2021/09/26 06:50:02;;;;;;;10.40;4.10;;;;;;;17.22;64.99;99279.85;27249;1216;3026096;-64
2021/09/26 06:52:31;;;;;;;10.20;4.40;;;;;;;16.98;66.24;99286.39;27231;1216;3070052;-70
2021/09/26 06:55:00;;;;;;;9.30;4.40;;;;;;;16.89;66.72;99283.83;27261;1216;3025713;-70
2021/09/26 06:57:29;;;;;;;8.70;3.70;;;;;;;16.87;66.71;99281.03;27224;1209;3026617;-66
2021/09/26 06:59:58;;;;;;;10.60;3.80;;;;;;;17.00;66.46;99279.35;27217;1216;3068066;-72
2021/09/26 07:02:27;;;;;;;5.60;2.80;;;;;;;16.98;66.43;99293.06;27230;1216;3026433;-68
2021/09/26 07:04:56;;;;;;;8.50;3.30;;;;;;;17.42;65.27;99287.19;27244;1216;3050260;-66
2021/09/26 07:07:25;;;;;;;8.40;3.70;;;;;;;17.85;63.53;99280.20;27221;1216;3028292;-68
2021/09/26 07:09:54;;;;;;;7.10;3.40;;;;;;;17.58;63.27;99284.48;27189;1216;3052162;-66
2021/09/26 07:12:23;;;;;;;8.20;3.40;;;;;;;17.20;64.28;99291.29;27338;1216;3026087;-70
2021/09/26 07:14:52;;;;;;;8.90;4.00;;;;;;;17.11;64.39;99292.67;27209;1208;3048726;-73
2021/09/26 07:17:21;;;;;;;5.60;3.50;;;;;;;16.97;64.64;99285.10;27272;1216;3027173;-68
2021/09/26 07:19:50;;;;;;;8.10;4.60;;;;;;;16.77;65.46;99299.71;27199;1216;3057483;-65
2021/09/26 07:22:23;;;;;;;8.90;4.30;;;;;;;16.66;65.82;99291.13;27223;1208;3026866;-69
2021/09/26 07:24:52;;;;;;;12.40;5.00;;;;;;;16.46;66.28;99296.93;27251;1216;3051338;-69
2021/09/26 07:27:21;;;;;;;8.90;3.70;;;;;;;16.39;67.05;99299.70;27238;1216;3028871;-66
2021/09/26 07:29:50;;;;;;;6.40;4.00;;;;;;;16.93;65.80;99291.79;27249;1216;3026663;-67
2021/09/26 07:32:20;;;;;;;7.80;4.30;;;;;;;17.19;64.58;99285.52;27262;1216;3051109;-69
2021/09/26 07:34:50;;;;;;;7.70;4.80;;;;;;;17.31;63.91;99287.34;27225;1216;3026244;-69
2021/09/26 07:37:20;;;;;;;12.00;4.90;;;;;;;17.32;63.82;99290.02;27215;1217;3026378;-68
2021/09/26 07:39:49;;;;;;;10.00;5.00;;;;;;;17.21;63.28;99296.17;27240;1216;3026128;-67
2021/09/26 07:42:18;;;;;;;9.40;4.40;;;;;;;16.83;64.04;99313.50;27253;1216;3028503;-70
2021/09/26 07:44:47;;;;;;;11.20;4.30;;;;;;;16.91;63.83;99308.39;27215;1216;3048697;-72
2021/09/26 07:47:16;;;;;;;11.00;3.90;;;;;;;16.96;63.25;99308.46;27224;1216;3026229;-69
2021/09/26 07:49:45;;;;;;;9.20;3.70;;;;;;;16.99;62.65;99310.19;27267;1208;3026015;-65
2021/09/26 07:52:14;;;;;;;8.00;3.50;;;;;;;17.12;62.19;99313.48;27244;1216;3049689;-66
2021/09/26 07:54:43;;;;;;;7.20;2.70;;;;;;;17.01;60.17;99316.92;27270;1216;3026229;-70
2021/09/26 07:57:12;;;;;;;6.70;2.90;;;;;;;17.04;60.04;99308.71;27232;1216;3055305;-68
2021/09/26 07:59:42;;;;;;;6.10;2.70;;;;;;;17.00;59.26;99309.91;27249;1216;3026332;-66
2021/09/26 08:02:12;;;;;;;6.00;2.60;;;;;;;17.08;58.52;99307.80;27267;1208;3025941;-67
2021/09/26 08:04:43;;;;;;;7.60;2.60;;;;;;;17.16;58.07;99314.20;27232;1216;3057649;-71
2021/09/26 08:07:12;;;;;;;5.20;2.20;;;;;;;17.09;57.31;99313.70;27238;1216;3026283;-68
2021/09/26 08:09:44;;;;;;;6.20;2.30;;;;;;;17.14;56.72;99307.58;27273;1216;3026794;-65
2021/09/26 08:12:13;;;;;;;9.70;2.20;;;;;;;17.11;54.67;99313.02;27319;1216;3027676;-67
2021/09/26 08:14:41;;;;;;;6.70;2.80;;;;;;;17.21;54.99;99308.77;27379;1216;3049961;-71
2021/09/26 08:17:11;;;;;;;5.20;2.00;;;;;;;17.34;54.12;99306.11;27222;1216;3026797;-69
2021/09/26 08:19:43;;;;;;;5.20;1.60;;;;;;;17.35;51.87;99316.15;27245;1216;3026068;-66
2021/09/26 08:22:12;;;;;;;7.00;1.80;;;;;;;17.42;50.33;99305.59;27198;1216;3029150;-66
2021/09/26 08:24:41;;;;;;;5.70;1.90;;;;;;;17.36;49.78;99310.20;27216;1216;3051877;-71
2021/09/26 08:27:10;;;;;;;9.70;2.00;;;;;;;17.36;51.10;99321.33;27269;1216;3028946;-73
2021/09/26 08:29:39;;;;;;;6.30;2.20;;;;;;;17.25;51.75;99318.28;27217;1216;3049129;-64
2021/09/26 08:32:09;;;;;;;9.20;2.50;;;;;;;17.21;53.21;99319.68;27243;1216;3026391;-68
2021/09/26 08:34:38;;;;;;;4.70;1.90;;;;;;;17.21;53.83;99323.77;27204;1216;3026251;-69
2021/09/26 08:37:09;;;;;;;6.60;2.00;;;;;;;17.26;53.68;99323.16;27203;1216;3026431;-69
2021/09/26 08:39:37;;;;;;;4.50;2.20;;;;;;;17.43;52.71;99312.76;27286;1208;3026066;-64
2021/09/26 08:42:07;;;;;;;8.50;1.90;;;;;;;17.37;52.03;99326.55;27204;1216;3052795;-66
2021/09/26 08:44:36;;;;;;;4.70;1.70;;;;;;;17.21;52.40;99310.48;27202;1216;3026482;-66
2021/09/26 08:47:05;;;;;;;5.00;1.60;;;;;;;17.21;50.75;99311.61;27239;1216;3025747;-67
2021/09/26 08:49:35;;;;;;;4.00;1.60;;;;;;;17.23;49.38;99318.27;27231;1217;3053040;-69
2021/09/26 08:52:05;;;;;;;7.40;1.80;;;;;;;17.55;49.24;99313.23;27205;1216;3026179;-71
2021/09/26 08:54:35;;;;;;;4.70;1.40;;;;;;;17.82;48.56;99305.80;27235;1216;3026197;-65
2021/09/26 08:57:04;;;;;;;9.30;2.00;;;;;;;17.77;46.01;99313.49;27249;1216;3026103;-70
2021/09/26 08:59:33;;;;;;;3.10;1.70;;;;;;;17.68;45.04;99325.66;27176;1216;3070708;-65
2021/09/26 09:02:02;;;;;;;7.00;2.00;;;;;;;17.91;46.40;99308.70;27267;1216;3027388;-69
2021/09/26 09:04:36;;;;;;;5.10;1.80;;;;;;;18.13;46.77;99316.73;27230;1216;3050438;-71
2021/09/26 09:07:06;;;;;;;10.40;1.90;;;;;;;18.03;46.80;99325.16;27210;1216;3069731;-68
2021/09/26 09:09:52;;;;;;;5.60;1.50;;;;;;;17.95;47.35;99318.44;27295;1216;3025737;-67
2021/09/26 09:12:31;;;;;;;6.30;2.00;;;;;;;17.92;48.48;99324.19;27221;1216;3053193;-68
2021/09/26 09:15:13;;;;;;;7.10;2.10;;;;;;;17.73;48.87;99337.18;27219;1216;3051715;-65
2021/09/26 09:17:43;;;;;;;6.70;1.80;;;;;;;17.81;49.00;99334.10;27231;1216;3056292;-69
2021/09/26 09:20:16;;;;;;;6.70;1.90;;;;;;;17.90;49.48;99327.59;27219;1216;3026549;-70
2021/09/26 09:22:50;;;;;;;7.30;2.40;;;;;;;17.90;49.37;99331.80;27236;1217;3028061;-66
2021/09/26 09:25:41;;;;;;;8.50;2.90;;;;;;;18.09;49.17;99327.97;27237;1216;3052197;-69
2021/09/26 09:28:12;;;;;;;4.40;2.00;;;;;;;18.21;49.56;99336.59;27239;1216;3067447;-65
2021/09/26 09:30:43;;;;;;;8.30;1.90;;;;;;;18.27;49.18;99326.25;27253;1216;3028383;-66
2021/09/26 09:33:12;;;;;;;8.40;2.00;;;;;;;18.39;48.48;99326.34;27242;1216;3025891;-71
2021/09/26 09:35:44;;;;;;;5.00;2.00;;;;;;;18.13;49.45;99341.23;27269;1216;3025882;-67
2021/09/26 09:38:16;;;;;;;11.20;2.50;;;;;;;18.01;49.73;99322.16;27210;1218;3026283;-71
2021/09/26 09:40:48;;;;;;;6.50;2.00;;;;;;;17.99;49.75;99327.95;27232;1216;3026567;-68
2021/09/26 09:43:17;;;;;;;10.10;2.40;;;;;;;18.15;49.51;99329.18;27240;1216;3027569;-68
2021/09/26 09:45:52;;;;;;;7.70;2.30;;;;;;;18.26;49.24;99341.71;27290;1216;3026387;-70
2021/09/26 09:48:22;;;;;;;6.80;2.20;;;;;;;18.07;49.43;99326.05;27545;1216;3049813;-63
2021/09/26 09:50:55;;;;;;;6.70;2.10;;;;;;;17.87;49.72;99353.00;27603;1216;3026247;-65
2021/09/26 09:53:29;;;;;;;6.90;2.30;;;;;;;17.71;50.23;99333.54;27591;1216;3026088;-65
2021/09/26 09:56:23;;;;;;;7.40;2.00;;;;;;;17.64;51.32;99337.96;27242;1216;3067876;-69
2021/09/26 09:58:54;;;;;;;7.70;2.20;;;;;;;17.51;52.12;99335.61;27247;1216;3048535;-69
2021/09/26 10:01:30;;;;;;;9.20;2.00;;;;;;;17.56;52.31;99335.15;27288;1216;3026223;-67
2021/09/26 10:04:03;;;;;;;5.20;1.90;;;;;;;17.56;51.12;99336.17;27266;1216;3051647;-66
2021/09/26 10:06:35;;;;;;;5.30;1.80;;;;;;;17.53;50.52;99339.13;27242;1216;3025928;-68
2021/09/26 10:09:13;;;;;;;11.00;2.50;;;;;;;17.36;50.94;99329.88;27241;1219;3027117;-68
2021/09/26 10:11:46;;;;;;;5.80;1.70;;;;;;;17.48;50.83;99332.67;27242;1207;3054907;-68
2021/09/26 10:14:16;;;;;;;8.80;2.00;;;;;;;17.54;50.28;99333.67;27288;1208;3026693;-67
2021/09/26 10:16:45;;;;;;;5.50;1.80;;;;;;;17.69;49.89;99328.98;27272;1216;3025858;-69
2021/09/26 10:19:14;;;;;;;4.30;1.80;;;;;;;17.88;49.13;99321.42;27243;1208;3026102;-69
2021/09/26 10:21:43;;;;;;;6.10;2.10;;;;;;;18.06;49.19;99317.44;27250;1216;3028883;-69
2021/09/26 10:24:12;;;;;;;7.40;2.20;;;;;;;18.19;49.21;99314.39;27230;1217;3068428;-66
2021/09/26 10:26:42;;;;;;;4.50;1.80;;;;;;;18.19;48.82;99324.15;27188;1217;3025939;-65
2021/09/26 10:29:11;;;;;;;6.80;1.90;;;;;;;18.13;49.09;99326.17;27221;1217;3050889;-70
2021/09/26 10:31:40;;;;;;;6.00;2.40;;;;;;;18.13;48.49;99321.34;27225;1216;3025861;-66
2021/09/26 10:34:09;;;;;;;8.20;2.10;;;;;;;18.07;49.12;99314.32;27229;1216;3052244;-66
2021/09/26 10:36:38;;;;;;;9.50;2.20;;;;;;;18.07;49.43;99322.08;27253;1217;3028108;-68
2021/09/26 10:39:07;;;;;;;8.20;2.30;;;;;;;18.05;49.55;99327.84;27230;1216;3048456;-69
2021/09/26 10:41:36;;;;;;;8.80;2.40;;;;;;;17.99;50.07;99330.48;27286;1211;3026319;-65
2021/09/26 10:44:24;;;;;;;7.20;2.30;;;;;;;18.11;49.61;99331.61;27289;1216;3026353;-70
2021/09/26 10:47:25;;;;;;;7.00;2.20;;;;;;;17.97;48.06;99330.51;27272;1216;3049302;-69
2021/09/26 10:50:12;;;;;;;11.10;2.10;;;;;;;17.82;49.06;99336.98;27162;1219;3052920;-65
2021/09/26 10:52:43;;;;;;;9.00;2.70;;;;;;;17.71;50.22;99338.73;27226;1219;3051078;-63
2021/09/26 10:55:14;;;;;;;8.40;2.50;;;;;;;17.66;50.04;99335.14;27181;1219;3028070;-69
2021/09/26 10:57:44;;;;;;;8.00;2.50;;;;;;;17.53;47.24;99339.14;27206;1219;3026652;-66
2021/09/26 11:00:14;;;;;;;6.80;1.90;;;;;;;17.40;46.68;99345.64;27205;1219;3027175;-70
2021/09/26 11:02:44;;;;;;;7.80;2.30;;;;;;;17.36;47.55;99336.77;27239;1219;3026438;-67
2021/09/26 11:05:40;;;;;;;5.80;2.20;;;;;;;17.41;48.42;99330.30;27222;1219;3027121;-67
2021/09/26 11:08:15;;;;;;;6.50;2.00;;;;;;;17.45;49.39;99326.04;27181;1220;3050009;-63
2021/09/26 11:10:49;;;;;;;5.80;2.10;;;;;;;17.50;50.11;99324.72;27212;1220;3055507;-65
2021/09/26 11:13:28;;;;;;;6.70;1.70;;;;;;;17.91;49.65;99325.20;27228;1220;3053574;-66
2021/09/26 11:16:10;;;;;;;7.90;2.50;;;;;;;18.04;48.50;99336.95;27194;1219;3068794;-68
2021/09/26 11:18:59;;;;;;;11.90;1.90;;;;;;;17.93;48.24;99332.08;27164;1219;3049010;-71
2021/09/26 11:21:37;;;;;;;6.50;1.50;;;;;;;17.91;48.12;99343.98;27196;1219;3052426;-69
2021/09/26 11:24:08;;;;;;;5.30;1.90;;;;;;;17.94;48.33;99341.17;27235;1220;3054634;-70
2021/09/26 11:27:07;;;;;;;6.20;1.90;;;;;;;18.06;48.26;99327.20;27187;1216;3026597;-69
2021/09/26 11:29:39;;;;;;;8.10;2.40;;;;;;;18.17;47.04;99327.78;27250;1216;3048132;-67
2021/09/26 11:32:23;;;;;;;6.10;1.80;;;;;;;18.12;45.77;99325.77;27222;1217;3027827;-73
2021/09/26 11:34:53;;;;;;;7.80;1.90;;;;;;;18.25;45.47;99327.52;27245;1216;3053160;-69